Time;durP1;ratioP1;P1;durP2;ratioP2;P2;SDS_P1;SDS_P2;PMS_P1;PMS_P2;Temp;Humidity;BMP_temperature;BMP_pressure;BME280_temperature;BME280_humidity;BME280_pressure;Samples;Min_cycle;Max_cycle;Signal;HPM_P1;HPM_P2
2023/06/22 00:00:12;;;;;;;1.17;1.17;;;;;;;22.38;76.92;95523.38;4367205;32;20212;-70
2023/06/22 00:02:40;;;;;;;2.00;1.33;;;;;;;22.44;76.68;95508.41;4378471;32;20212;-70
2023/06/22 00:05:07;;;;;;;0.93;0.93;;;;;;;22.52;76.21;95493.03;4366508;32;20230;-70
2023/06/22 00:07:34;;;;;;;1.03;1.03;;;;;;;22.33;76.40;95493.16;4354481;32;20176;-70
2023/06/22 00:10:02;;;;;;;1.57;1.47;;;;;;;22.31;76.68;95485.41;4350091;32;20192;-70
2023/06/22 00:12:32;;;;;;;1.87;1.43;;;;;;;22.28;76.85;95488.81;4380101;32;20188;-69
2023/06/22 00:15:01;;;;;;;2.93;1.70;;;;;;;22.30;76.62;95491.94;4373407;32;20257;-69
2023/06/22 00:17:26;;;;;;;2.10;1.13;;;;;;;22.34;76.62;95500.12;4369370;32;20188;-66
2023/06/22 00:20:18;;;;;;;2.00;1.33;;;;;;;22.31;77.43;95504.31;4342498;32;20259;-70
2023/06/22 00:22:45;;;;;;;1.53;1.53;;;;;;;22.35;76.75;95505.16;4303249;32;20245;-69
2023/06/22 00:25:11;;;;;;;1.60;1.03;;;;;;;22.28;76.88;95496.94;4361728;32;20223;-70
2023/06/22 00:27:40;;;;;;;0.93;0.93;;;;;;;22.26;76.82;95500.00;4356657;32;20255;-69
2023/06/22 00:30:25;;;;;;;1.20;1.13;;;;;;;22.26;76.87;95501.91;4388442;32;20241;-70
2023/06/22 00:32:51;;;;;;;1.13;1.03;;;;;;;22.11;77.89;95506.34;4366680;32;20291;-70
2023/06/22 00:35:20;;;;;;;3.30;0.97;;;;;;;22.16;77.64;95500.62;4382079;32;20208;-70
2023/06/22 00:37:47;;;;;;;1.40;1.27;;;;;;;22.21;77.03;95499.56;4369929;32;20206;-70
2023/06/22 00:40:14;;;;;;;1.87;1.27;;;;;;;22.20;77.80;95500.69;4356903;32;20189;-69
2023/06/22 00:42:45;;;;;;;1.07;0.90;;;;;;;22.20;77.12;95498.00;4368654;32;20184;-70
2023/06/22 00:45:13;;;;;;;1.10;1.10;;;;;;;22.13;77.69;95504.06;4365785;32;20184;-69
2023/06/22 00:47:44;;;;;;;1.50;1.40;;;;;;;22.00;77.61;95501.88;4367104;32;20184;-70
2023/06/22 00:50:23;;;;;;;0.93;0.93;;;;;;;22.11;78.22;95497.44;4348146;32;20192;-70
2023/06/22 00:52:58;;;;;;;2.27;0.63;;;;;;;22.07;77.45;95497.37;4347941;32;20194;-69
2023/06/22 00:55:28;;;;;;;0.70;0.70;;;;;;;22.06;77.85;95489.66;4340286;32;20247;-69
2023/06/22 00:57:55;;;;;;;2.70;1.10;;;;;;;22.02;77.51;95495.00;4337470;32;20265;-69
2023/06/22 01:00:35;;;;;;;0.90;0.90;;;;;;;21.95;77.41;95492.94;4336848;32;20192;-69
2023/06/22 01:03:08;;;;;;;0.60;0.60;;;;;;;21.97;77.41;95486.41;4351286;32;20215;-69
2023/06/22 01:05:42;;;;;;;0.80;0.80;;;;;;;21.82;78.37;95494.25;4317840;32;20201;-69
2023/06/22 01:08:55;;;;;;;1.20;1.20;;;;;;;21.91;78.86;95481.28;4338011;32;20218;-69
2023/06/22 01:11:41;;;;;;;0.67;0.67;;;;;;;21.97;78.44;95476.38;4322383;32;20231;-69
2023/06/22 01:14:52;;;;;;;2.67;1.93;;;;;;;21.94;77.57;95471.69;4327271;32;20188;-69
2023/06/22 01:17:20;;;;;;;1.37;1.33;;;;;;;21.77;78.16;95467.56;4359039;32;20294;-69
2023/06/22 01:19:55;;;;;;;0.40;0.40;;;;;;;21.82;78.01;95467.25;4330002;32;20188;-70
2023/06/22 01:22:25;;;;;;;0.90;0.90;;;;;;;21.72;79.02;95465.16;4361183;32;20187;-70
2023/06/22 01:25:22;;;;;;;0.50;0.50;;;;;;;21.77;78.36;95464.88;4357178;32;20193;-69
2023/06/22 01:28:04;;;;;;;3.07;1.63;;;;;;;21.71;78.74;95454.72;4310802;32;20197;-69
2023/06/22 01:30:33;;;;;;;0.67;0.67;;;;;;;21.75;78.67;95461.75;4329809;32;20185;-69
2023/06/22 01:33:03;;;;;;;1.30;1.20;;;;;;;21.74;78.31;95462.09;4365383;32;20188;-65
2023/06/22 01:35:30;;;;;;;1.40;1.37;;;;;;;21.66;78.85;95455.00;4371178;32;20203;-69
2023/06/22 01:37:58;;;;;;;0.80;0.80;;;;;;;21.66;78.88;95452.31;4363307;32;20192;-69
2023/06/22 01:40:45;;;;;;;1.07;0.80;;;;;;;21.69;79.57;95454.28;4355211;32;20197;-69
2023/06/22 01:43:11;;;;;;;3.83;1.47;;;;;;;21.66;79.38;95449.59;4324031;32;20193;-69
2023/06/22 01:45:38;;;;;;;1.07;1.07;;;;;;;21.65;79.03;95448.03;4320803;32;20250;-69
2023/06/22 01:48:05;;;;;;;0.97;0.97;;;;;;;21.61;79.53;95442.59;4297977;32;20228;-69
2023/06/22 01:50:32;;;;;;;1.50;1.47;;;;;;;21.52;80.23;95450.16;4339135;32;20196;-69
2023/06/22 01:53:06;;;;;;;0.60;0.60;;;;;;;21.53;79.39;95438.22;4346822;32;20243;-69
2023/06/22 01:55:34;;;;;;;1.83;1.67;;;;;;;21.54;80.40;95437.09;4358838;32;20220;-69
2023/06/22 01:58:03;;;;;;;1.03;1.03;;;;;;;21.59;79.98;95439.50;4364068;32;20177;-70
2023/06/22 02:00:32;;;;;;;1.43;1.33;;;;;;;21.59;79.84;95436.78;4297265;32;20209;-70
2023/06/22 02:03:06;;;;;;;1.37;1.27;;;;;;;21.46;80.47;95436.16;4313417;32;20219;-69
2023/06/22 02:06:03;;;;;;;0.77;0.77;;;;;;;21.56;80.58;95437.50;4364786;32;20223;-69
2023/06/22 02:08:32;;;;;;;2.00;1.90;;;;;;;21.65;79.42;95443.41;4339075;32;20220;-69
2023/06/22 02:11:00;;;;;;;1.60;1.20;;;;;;;21.62;80.63;95446.84;4332183;32;20245;-69
2023/06/22 02:13:29;;;;;;;0.90;0.90;;;;;;;21.66;80.09;95441.50;4335594;32;20219;-70
2023/06/22 02:15:56;;;;;;;1.97;1.53;;;;;;;21.69;80.53;95443.50;4365161;32;20226;-70
2023/06/22 02:18:22;;;;;;;2.53;2.33;;;;;;;21.72;80.60;95451.66;4350958;32;20193;-70
2023/06/22 02:20:50;;;;;;;1.40;1.40;;;;;;;21.75;80.16;95453.63;4352433;32;20324;-69
2023/06/22 02:23:17;;;;;;;1.67;1.57;;;;;;;21.72;79.85;95451.66;4308857;32;20232;-70
2023/06/22 02:25:44;;;;;;;1.40;1.17;;;;;;;21.65;80.30;95439.94;4331660;32;20264;-69
2023/06/22 02:28:18;;;;;;;1.13;1.13;;;;;;;21.65;80.91;95448.81;4325693;32;20212;-69
2023/06/22 02:30:45;;;;;;;3.53;1.70;;;;;;;21.63;80.17;95448.41;4341344;32;20270;-69
2023/06/22 02:33:13;;;;;;;1.33;1.23;;;;;;;21.67;80.38;95449.25;4350791;32;20261;-69
2023/06/22 02:35:39;;;;;;;0.70;0.70;;;;;;;21.68;80.59;95450.03;4361150;32;20180;-69
2023/06/22 02:38:06;;;;;;;5.30;2.03;;;;;;;21.67;80.52;95446.53;4384982;32;20240;-69
2023/06/22 02:40:33;;;;;;;0.90;0.90;;;;;;;21.62;80.51;95463.81;4365590;32;20192;-69
2023/06/22 02:43:01;;;;;;;1.67;1.60;;;;;;;21.60;80.55;95468.06;4359574;32;20338;-69
2023/06/22 02:45:29;;;;;;;3.07;1.50;;;;;;;21.71;81.02;95474.41;4324514;32;20193;-69
2023/06/22 02:47:58;;;;;;;3.20;1.30;;;;;;;21.73;80.43;95477.53;4335022;32;20212;-69
2023/06/22 02:50:25;;;;;;;1.60;1.50;;;;;;;21.68;80.41;95483.22;4313847;32;20211;-69
2023/06/22 02:52:51;;;;;;;5.27;1.90;;;;;;;21.70;80.56;95482.84;4338651;32;20275;-70
2023/06/22 02:55:18;;;;;;;1.30;1.30;;;;;;;21.75;80.15;95486.06;4380618;32;20252;-70
2023/06/22 02:57:52;;;;;;;1.00;1.00;;;;;;;21.80;80.31;95487.69;4330184;32;20201;-70
2023/06/22 03:00:20;;;;;;;1.77;1.70;;;;;;;21.78;79.81;95482.63;4356896;32;20220;-70
2023/06/22 03:02:47;;;;;;;1.77;1.57;;;;;;;21.82;79.21;95472.63;4372766;32;20307;-69
2023/06/22 03:05:18;;;;;;;1.03;0.97;;;;;;;21.77;79.43;95472.97;4338031;32;20246;-69
2023/06/22 03:07:45;;;;;;;1.60;1.47;;;;;;;21.78;79.01;95469.12;4309817;32;20242;-69
2023/06/22 03:10:15;;;;;;;2.03;1.87;;;;;;;21.80;79.45;95464.16;4347387;32;20188;-69
2023/06/22 03:12:50;;;;;;;6.87;1.73;;;;;;;21.65;78.70;95467.72;4352500;32;20272;-69
2023/06/22 03:15:23;;;;;;;1.10;1.10;;;;;;;21.64;79.05;95465.37;4357015;32;20213;-69
2023/06/22 03:17:48;;;;;;;1.07;1.07;;;;;;;21.65;79.52;95470.44;4357769;32;20216;-69
2023/06/22 03:20:19;;;;;;;1.57;1.47;;;;;;;21.65;80.32;95464.25;4359643;32;20258;-70
2023/06/22 03:22:46;;;;;;;1.90;1.80;;;;;;;21.59;79.97;95466.50;4349130;32;20211;-70
2023/06/22 03:25:14;;;;;;;1.50;1.50;;;;;;;21.60;80.24;95470.75;4330618;32;20189;-69
2023/06/22 03:27:42;;;;;;;1.53;1.43;;;;;;;21.58;80.63;95464.94;4357288;32;20181;-69
2023/06/22 03:30:12;;;;;;;1.70;1.60;;;;;;;21.56;79.95;95461.81;4392827;32;20207;-69
2023/06/22 03:32:39;;;;;;;1.67;1.57;;;;;;;21.55;80.51;95457.53;4349188;32;20199;-69
2023/06/22 03:35:06;;;;;;;1.30;1.30;;;;;;;21.60;80.30;95463.44;4323526;32;20247;-69
2023/06/22 03:37:39;;;;;;;1.10;1.10;;;;;;;21.55;80.39;95463.72;4350011;32;20234;-69
2023/06/22 03:40:05;;;;;;;1.50;1.40;;;;;;;21.53;80.92;95468.69;4364406;32;20172;-69
2023/06/22 03:42:35;;;;;;;1.77;1.67;;;;;;;21.57;80.60;95460.66;4360574;32;20192;-69
2023/06/22 03:45:03;;;;;;;2.23;2.13;;;;;;;21.69;80.50;95459.69;4371403;32;20173;-69
2023/06/22 03:47:29;;;;;;;1.07;1.07;;;;;;;21.66;79.51;95461.19;4328560;32;20209;-68
2023/06/22 03:49:57;;;;;;;1.90;1.23;;;;;;;21.61;80.78;95469.62;4340533;32;20189;-70
2023/06/22 03:52:25;;;;;;;1.57;1.47;;;;;;;21.61;80.78;95470.38;4356821;32;20195;-69
2023/06/22 03:54:51;;;;;;;1.60;1.60;;;;;;;21.57;80.77;95463.38;4342948;32;20192;-70
2023/06/22 03:57:18;;;;;;;0.60;0.60;;;;;;;;;;4360021;32;20224;-69
2023/06/22 03:59:47;;;;;;;2.13;1.93;;;;;;;21.58;80.87;95465.72;4339960;32;20228;-70
2023/06/22 04:02:14;;;;;;;1.83;1.73;;;;;;;21.55;80.52;95476.44;4327398;32;20188;-69
2023/06/22 04:04:40;;;;;;;1.20;1.20;;;;;;;21.58;80.28;95470.31;4334233;32;20185;-70
2023/06/22 04:07:07;;;;;;;2.03;1.80;;;;;;;21.67;80.38;95475.47;4342649;32;20227;-69
2023/06/22 04:09:34;;;;;;;1.20;1.17;;;;;;;21.61;80.62;95478.47;4377170;32;20216;-69
2023/06/22 04:12:02;;;;;;;4.43;1.73;;;;;;;21.48;81.03;95484.41;4375054;32;20204;-69
2023/06/22 04:14:28;;;;;;;0.97;0.97;;;;;;;21.46;81.36;95490.16;4307213;32;20209;-65
2023/06/22 04:16:55;;;;;;;1.90;1.57;;;;;;;21.59;81.14;95486.16;4348539;32;20212;-69
2023/06/22 04:19:23;;;;;;;1.73;1.63;;;;;;;21.60;80.58;95479.63;4367619;32;20214;-69
2023/06/22 04:21:48;;;;;;;2.20;1.87;;;;;;;21.54;80.99;95472.97;4371779;32;20192;-69
2023/06/22 04:24:15;;;;;;;7.47;2.40;;;;;;;21.45;81.12;95483.19;4331198;32;20228;-69
2023/06/22 04:26:46;;;;;;;2.27;2.07;;;;;;;21.58;80.68;95481.13;4376124;32;20211;-70
2023/06/22 04:29:12;;;;;;;1.37;1.37;;;;;;;21.45;80.65;95472.41;4382745;32;20258;-69
2023/06/22 04:31:39;;;;;;;7.63;1.60;;;;;;;;;;4374124;32;20256;-70
2023/06/22 04:34:09;;;;;;;2.07;1.90;;;;;;;21.57;80.72;95471.47;4377733;32;20193;-69
2023/06/22 04:36:46;;;;;;;3.20;1.83;;;;;;;21.58;81.22;95473.03;4365908;32;20201;-70
2023/06/22 04:39:13;;;;;;;2.57;1.93;;;;;;;21.65;80.80;95481.22;4355968;32;20231;-70
2023/06/22 04:41:41;;;;;;;1.27;1.27;;;;;;;21.62;80.71;95468.44;4357121;32;20271;-70
2023/06/22 04:44:12;;;;;;;1.67;1.57;;;;;;;21.64;81.16;95473.50;4376604;32;20189;-70
2023/06/22 04:46:42;;;;;;;1.70;1.60;;;;;;;21.57;80.74;95474.16;4383133;32;20201;-69
2023/06/22 04:49:11;;;;;;;40.10;2.20;;;;;;;21.65;81.35;95466.94;4372700;32;20172;-69
2023/06/22 04:51:43;;;;;;;14.83;2.17;;;;;;;21.60;81.18;95468.06;4345308;32;20193;-69
2023/06/22 04:54:12;;;;;;;2.00;1.83;;;;;;;21.74;80.79;95465.59;4380820;32;20200;-69
2023/06/22 04:56:40;;;;;;;1.80;1.70;;;;;;;21.76;80.64;95459.81;4371164;32;20276;-69
2023/06/22 04:59:12;;;;;;;1.87;1.63;;;;;;;21.80;80.69;95455.25;4363659;32;20193;-69
2023/06/22 05:01:39;;;;;;;2.17;2.07;;;;;;;21.64;81.10;95466.16;4356924;32;20203;-69
2023/06/22 05:04:07;;;;;;;1.57;1.47;;;;;;;21.71;81.11;95465.50;4338631;32;20215;-68
2023/06/22 05:06:34;;;;;;;1.67;1.57;;;;;;;21.77;81.17;95461.38;4355530;32;20193;-69
2023/06/22 05:09:00;;;;;;;1.40;1.20;;;;;;;21.78;80.93;95460.25;4369379;32;20197;-69
2023/06/22 05:11:27;;;;;;;2.00;1.90;;;;;;;21.87;80.98;95458.84;4358218;32;20189;-70
2023/06/22 05:13:54;;;;;;;1.80;1.77;;;;;;;21.84;80.96;95446.03;4363431;32;20197;-69
2023/06/22 05:16:24;;;;;;;2.10;2.00;;;;;;;21.72;81.41;95448.94;4339393;32;20265;-69
2023/06/22 05:18:52;;;;;;;1.70;1.60;;;;;;;21.36;83.26;95452.19;4346570;32;20185;-69
2023/06/22 05:21:24;;;;;;;5.60;2.47;;;;;;;21.57;82.52;95453.34;4367928;32;20222;-69
2023/06/22 05:23:53;;;;;;;1.70;1.60;;;;;;;21.56;82.74;95442.91;4340616;32;22556;-69
2023/06/22 05:26:20;;;;;;;1.60;1.50;;;;;;;21.70;82.32;95445.03;4361649;32;21746;-62
2023/06/22 05:28:47;;;;;;;3.87;2.47;;;;;;;21.56;82.97;95440.19;4351819;32;20238;-62
2023/06/22 05:31:15;;;;;;;2.93;2.13;;;;;;;21.67;82.05;95443.06;4330498;32;20265;-62
2023/06/22 05:33:53;;;;;;;1.57;1.53;;;;;;;21.75;82.06;95450.94;4350087;32;20252;-63
2023/06/22 05:36:26;;;;;;;2.37;2.27;;;;;;;21.59;83.42;95442.19;4322012;32;20268;-62
2023/06/22 05:38:53;;;;;;;2.17;2.07;;;;;;;21.61;83.60;95448.75;4360947;32;20193;-63
2023/06/22 05:41:20;;;;;;;3.33;2.03;;;;;;;21.67;83.48;95446.53;4360804;32;20232;-62
2023/06/22 05:43:46;;;;;;;1.77;1.67;;;;;;;21.62;83.17;95441.44;4348633;32;20181;-62
2023/06/22 05:46:13;;;;;;;1.63;1.53;;;;;;;21.60;83.44;95439.12;4364410;32;20189;-63
2023/06/22 05:48:39;;;;;;;2.50;2.30;;;;;;;21.74;83.89;95443.97;4369372;32;20227;-63
2023/06/22 05:51:07;;;;;;;3.30;2.23;;;;;;;21.83;82.96;95447.19;4341603;32;20203;-62
2023/06/22 05:53:34;;;;;;;4.00;2.07;;;;;;;21.72;83.79;95443.56;4362945;32;20199;-63
2023/06/22 05:56:02;;;;;;;1.30;1.30;;;;;;;21.79;83.53;95438.28;4368938;32;20188;-62
2023/06/22 05:58:30;;;;;;;2.07;1.80;;;;;;;22.02;81.54;95438.28;4353268;32;20200;-61
2023/06/22 06:01:00;;;;;;;2.70;2.30;;;;;;;21.93;82.11;95443.09;4359780;32;20240;-63
2023/06/22 06:03:28;;;;;;;2.63;2.43;;;;;;;21.88;82.66;95446.88;4370405;32;20239;-60
2023/06/22 06:05:57;;;;;;;2.10;2.00;;;;;;;22.01;81.92;95449.44;4365904;32;20235;-61
2023/06/22 06:08:25;;;;;;;2.17;2.07;;;;;;;22.10;81.82;95453.44;4332817;32;20184;-72
2023/06/22 06:10:52;;;;;;;2.90;2.67;;;;;;;22.13;82.46;95454.62;4346624;32;20202;-67
2023/06/22 06:16:27;;;;;;;2.23;2.03;;;;;;;22.47;80.74;95442.75;4301232;32;20280;-67
2023/06/22 06:18:54;;;;;;;1.47;1.43;;;;;;;22.60;79.67;95444.09;4322423;32;20209;-67
2023/06/22 06:21:25;;;;;;;1.93;1.87;;;;;;;22.72;79.88;95437.66;4350517;32;20189;-67
2023/06/22 06:23:53;;;;;;;4.43;2.60;;;;;;;22.83;79.37;95437.84;4336133;32;20189;-67
2023/06/22 06:26:27;;;;;;;1.83;1.73;;;;;;;22.85;79.54;95433.63;4353943;32;20326;-67
2023/06/22 06:28:55;;;;;;;3.03;1.57;;;;;;;22.98;79.22;95428.72;4364421;32;20207;-67
2023/06/22 06:31:23;;;;;;;2.83;2.13;;;;;;;23.07;78.38;95429.19;4342557;32;20303;-67
2023/06/22 06:33:49;;;;;;;1.23;1.23;;;;;;;23.08;78.82;95425.34;4364864;32;20191;-67
2023/06/22 06:36:17;;;;;;;2.07;1.97;;;;;;;23.20;77.93;95422.38;4343823;32;20203;-67
2023/06/22 06:38:47;;;;;;;2.03;1.80;;;;;;;23.26;77.93;95428.25;4336849;32;20177;-67
2023/06/22 06:41:15;;;;;;;5.17;2.67;;;;;;;23.33;78.00;95419.41;4265041;32;20181;-67
2023/06/22 06:43:43;;;;;;;1.73;1.63;;;;;;;23.45;76.64;95421.84;4355752;32;20258;-67
2023/06/22 06:46:09;;;;;;;2.03;1.87;;;;;;;23.51;76.49;95421.13;4337510;32;20185;-67
2023/06/22 06:48:36;;;;;;;2.30;1.50;;;;;;;23.54;76.46;95425.81;4336012;32;20215;-67
2023/06/22 06:51:03;;;;;;;5.13;2.63;;;;;;;23.51;76.73;95421.13;4360239;32;20188;-66
2023/06/22 06:53:30;;;;;;;2.23;2.03;;;;;;;23.65;76.41;95415.09;4383831;32;20256;-67
2023/06/22 06:56:19;;;;;;;3.50;3.20;;;;;;;23.73;76.61;95416.69;4340895;32;20213;-67
2023/06/22 06:58:45;;;;;;;2.43;2.23;;;;;;;23.85;75.65;95413.69;4328826;32;20265;-67
2023/06/22 07:01:14;;;;;;;3.07;2.27;;;;;;;23.94;75.62;95410.66;4345831;32;20193;-67
2023/06/22 07:03:41;;;;;;;1.43;1.43;;;;;;;24.16;73.96;95417.00;4347638;32;20192;-67
2023/06/22 07:06:08;;;;;;;1.87;1.77;;;;;;;24.30;73.55;95425.25;4370233;32;20259;-67
2023/06/22 07:08:46;;;;;;;1.53;1.53;;;;;;;24.46;72.61;95424.94;4357114;32;20193;-67
2023/06/22 07:11:12;;;;;;;2.73;2.47;;;;;;;24.54;72.17;95421.88;4370746;32;20188;-67
2023/06/22 07:13:39;;;;;;;2.83;2.60;;;;;;;24.59;72.11;95418.81;4359296;32;20252;-67
2023/06/22 07:16:06;;;;;;;3.27;2.10;;;;;;;24.68;72.00;95413.03;4372869;32;20282;-67
2023/06/22 07:18:32;;;;;;;1.73;1.63;;;;;;;24.90;70.91;95432.91;4371947;32;20211;-67
2023/06/22 07:20:59;;;;;;;2.63;2.47;;;;;;;24.94;71.25;95422.84;4274579;32;20197;-66
2023/06/22 07:23:26;;;;;;;2.67;2.57;;;;;;;25.00;70.23;95424.03;4311452;32;20184;-67
2023/06/22 07:25:51;;;;;;;4.20;2.23;;;;;;;25.10;70.50;95417.88;4226307;32;20263;-67
2023/06/22 07:28:18;;;;;;;1.63;1.57;;;;;;;25.05;71.48;95412.81;4338922;32;20201;-67
2023/06/22 07:30:43;;;;;;;2.33;2.23;;;;;;;25.01;70.67;95422.88;4336948;32;20233;-67
2023/06/22 07:33:10;;;;;;;1.67;1.53;;;;;;;24.99;70.49;95417.06;4333704;32;20193;-67
2023/06/22 07:35:37;;;;;;;2.00;1.90;;;;;;;25.05;70.03;95409.31;4374106;32;20250;-67
2023/06/22 07:38:04;;;;;;;1.80;1.70;;;;;;;25.07;71.28;95402.34;4364664;32;20247;-67
2023/06/22 07:40:31;;;;;;;2.23;2.13;;;;;;;25.12;70.62;95409.34;4380049;32;20202;-67
2023/06/22 07:42:59;;;;;;;2.20;2.03;;;;;;;25.05;70.72;95391.09;4355398;32;20203;-67
2023/06/22 07:45:26;;;;;;;2.27;2.17;;;;;;;25.18;69.77;95392.28;4368053;32;20185;-67
2023/06/22 07:47:55;;;;;;;1.30;1.27;;;;;;;25.27;69.55;95391.91;4338424;32;20193;-67
2023/06/22 07:50:23;;;;;;;1.50;1.50;;;;;;;25.25;69.00;95389.56;4316563;32;20269;-67
2023/06/22 07:52:52;;;;;;;1.77;1.70;;;;;;;25.27;69.33;95395.41;4307316;32;20307;-67
2023/06/22 07:55:19;;;;;;;2.37;2.17;;;;;;;25.25;69.57;95378.72;4349545;32;20295;-67
2023/06/22 07:57:48;;;;;;;1.57;1.57;;;;;;;25.27;69.34;95387.25;4350964;32;20228;-67
2023/06/22 08:00:18;;;;;;;2.90;1.63;;;;;;;25.31;69.89;95390.75;4368061;32;20196;-67
2023/06/22 08:02:46;;;;;;;2.73;2.63;;;;;;;25.37;69.40;95390.34;4349153;32;20192;-67
2023/06/22 08:05:14;;;;;;;1.00;1.00;;;;;;;25.47;68.21;95397.75;4316814;32;20185;-67
2023/06/22 08:07:43;;;;;;;3.67;2.03;;;;;;;25.44;68.59;95387.66;4345225;32;20211;-67
2023/06/22 08:10:13;;;;;;;2.73;1.73;;;;;;;25.48;67.86;95394.66;4346652;32;20299;-67
2023/06/22 08:12:40;;;;;;;1.30;1.30;;;;;;;25.54;67.77;95395.03;4322039;32;20197;-67
2023/06/22 08:15:09;;;;;;;2.40;2.20;;;;;;;25.64;67.32;95392.34;4335754;32;20203;-67
2023/06/22 08:17:40;;;;;;;3.50;1.37;;;;;;;25.62;67.57;95394.69;4327065;32;20193;-67
2023/06/22 08:20:16;;;;;;;2.23;1.73;;;;;;;25.72;67.41;95393.12;4361194;32;20236;-67
2023/06/22 08:22:43;;;;;;;1.23;1.23;;;;;;;25.83;66.40;95385.75;4345976;32;20336;-67
2023/06/22 08:25:14;;;;;;;2.97;2.47;;;;;;;25.90;66.49;95384.97;4325187;32;20263;-67
2023/06/22 08:27:55;;;;;;;1.97;1.87;;;;;;;25.99;66.09;95377.94;4317499;32;20197;-67
2023/06/22 08:30:22;;;;;;;1.73;1.63;;;;;;;26.06;66.10;95382.59;4341908;32;20291;-67
2023/06/22 08:32:49;;;;;;;2.83;2.73;;;;;;;26.12;65.23;95377.56;4300562;32;20190;-67
2023/06/22 08:35:16;;;;;;;4.63;2.27;;;;;;;26.10;64.93;95379.88;4311121;32;20190;-67
2023/06/22 08:37:51;;;;;;;2.67;1.83;;;;;;;26.17;64.97;95388.03;4300725;32;20228;-67
2023/06/22 08:40:19;;;;;;;1.80;1.70;;;;;;;26.23;63.94;95378.28;4378954;32;20235;-67
2023/06/22 08:42:47;;;;;;;2.10;1.90;;;;;;;26.30;63.72;95379.09;4347653;32;20208;-67
2023/06/22 08:45:19;;;;;;;2.00;1.90;;;;;;;26.33;63.60;95377.53;4306648;32;20220;-67
2023/06/22 08:47:45;;;;;;;3.67;2.40;;;;;;;26.24;64.14;95374.41;4320114;32;20181;-67
2023/06/22 08:50:13;;;;;;;2.03;1.33;;;;;;;26.35;63.31;95367.03;4270669;32;20197;-68
2023/06/22 08:52:43;;;;;;;1.27;1.17;;;;;;;26.32;63.55;95371.31;4336768;32;20211;-67
2023/06/22 08:55:10;;;;;;;1.77;1.67;;;;;;;26.41;63.27;95370.88;4336909;32;20213;-67
2023/06/22 08:57:39;;;;;;;1.30;1.30;;;;;;;26.52;62.48;95374.34;4330432;32;20240;-67
2023/06/22 09:00:19;;;;;;;1.13;1.03;;;;;;;26.63;61.52;95366.91;4359149;32;20194;-67
2023/06/22 09:02:48;;;;;;;2.63;2.23;;;;;;;26.64;61.75;95368.47;4367792;32;20177;-67
2023/06/22 09:05:15;;;;;;;1.87;1.70;;;;;;;26.80;60.95;95370.75;4310741;32;20241;-67
2023/06/22 09:07:43;;;;;;;1.90;1.53;;;;;;;26.80;61.16;95364.53;4290159;32;20197;-67
2023/06/22 09:10:13;;;;;;;3.17;2.93;;;;;;;26.90;60.33;95366.41;4322313;32;20188;-67
2023/06/22 09:12:45;;;;;;;0.90;0.90;;;;;;;26.95;60.13;95358.63;4323905;32;20186;-68
2023/06/22 09:15:12;;;;;;;1.43;1.33;;;;;;;26.88;60.48;95360.56;4317102;32;20270;-67
2023/06/22 09:17:50;;;;;;;2.23;2.13;;;;;;;26.88;60.58;95366.78;4309354;32;20193;-68
2023/06/22 09:20:17;;;;;;;1.90;1.80;;;;;;;26.94;60.48;95369.88;4341078;32;20180;-67
2023/06/22 09:22:48;;;;;;;1.27;1.17;;;;;;;27.06;59.88;95361.28;4333268;32;20268;-67
2023/06/22 09:25:14;;;;;;;1.87;1.73;;;;;;;26.97;60.53;95364.44;4339269;32;20242;-67
2023/06/22 09:27:40;;;;;;;2.17;2.07;;;;;;;27.07;60.05;95359.31;4315744;32;20259;-67
2023/06/22 09:30:06;;;;;;;1.97;1.60;;;;;;;27.10;60.07;95359.31;4320313;32;20310;-68
2023/06/22 09:32:33;;;;;;;3.80;2.23;;;;;;;27.07;60.70;95356.59;4320199;32;20189;-67
2023/06/22 09:35:10;;;;;;;2.67;2.37;;;;;;;27.12;60.27;95353.47;4345505;32;20185;-67
2023/06/22 09:37:38;;;;;;;2.00;1.90;;;;;;;27.25;59.66;95343.63;4328776;32;20188;-67
2023/06/22 09:40:11;;;;;;;1.90;1.80;;;;;;;27.41;59.35;95349.38;4317361;32;20195;-67
2023/06/22 09:42:37;;;;;;;1.37;1.30;;;;;;;27.60;58.65;95353.53;4323102;32;20248;-67
2023/06/22 09:45:08;;;;;;;1.90;1.70;;;;;;;27.55;58.83;95353.94;4362181;32;20198;-67
2023/06/22 09:47:34;;;;;;;6.70;2.07;;;;;;;27.73;58.06;95348.34;4347609;32;20180;-67
2023/06/22 09:49:59;;;;;;;1.60;1.40;;;;;;;27.84;57.92;95343.59;4350246;32;20180;-67
2023/06/22 09:52:30;;;;;;;1.23;1.23;;;;;;;27.77;59.24;95349.09;4314188;32;20284;-67
2023/06/22 09:54:57;;;;;;;1.80;1.70;;;;;;;27.94;58.16;95339.97;4360225;32;20242;-67
2023/06/22 09:57:23;;;;;;;4.03;2.33;;;;;;;28.01;57.80;95332.50;4365697;32;20205;-67
2023/06/22 09:59:53;;;;;;;9.13;2.57;;;;;;;28.03;58.10;95329.37;4357011;32;20271;-67
2023/06/22 10:02:19;;;;;;;2.17;2.07;;;;;;;28.14;57.39;95330.03;4367462;32;20318;-67
2023/06/22 10:04:47;;;;;;;2.00;1.80;;;;;;;28.14;57.69;95331.97;4379551;32;20202;-67
2023/06/22 10:07:14;;;;;;;13.70;12.53;;;;;;;28.38;56.59;95320.81;4373964;32;20190;-67
2023/06/22 10:09:42;;;;;;;5.37;4.93;;;;;;;28.51;56.36;95321.03;4344802;32;20192;-68
2023/06/22 10:12:08;;;;;;;3.13;2.93;;;;;;;28.60;55.93;95313.13;4369280;32;20287;-67
2023/06/22 10:14:36;;;;;;;4.20;3.67;;;;;;;28.72;56.05;95320.75;4308829;32;20309;-67
2023/06/22 10:17:02;;;;;;;4.27;3.80;;;;;;;28.76;56.05;95314.47;4348371;32;20204;-67
2023/06/22 10:19:28;;;;;;;4.17;3.87;;;;;;;28.89;54.91;95313.53;4362470;32;20206;-67
2023/06/22 10:21:55;;;;;;;2.93;1.73;;;;;;;29.02;54.18;95317.25;4362472;32;20204;-67
2023/06/22 10:24:20;;;;;;;2.60;2.40;;;;;;;29.11;53.90;95314.00;4365563;32;20242;-68
2023/06/22 10:26:47;;;;;;;2.83;2.60;;;;;;;29.22;53.42;95313.84;4378948;32;20225;-67
2023/06/22 10:29:16;;;;;;;3.60;1.53;;;;;;;29.26;53.35;95322.78;4383324;32;20210;-67
2023/06/22 10:31:45;;;;;;;15.67;3.17;;;;;;;29.23;53.66;95318.91;4334863;32;20201;-67
2023/06/22 10:34:15;;;;;;;1.23;1.23;;;;;;;29.23;53.61;95302.50;4332675;32;20185;-67
2023/06/22 10:36:53;;;;;;;4.37;3.00;;;;;;;29.47;53.15;95321.69;4344546;32;20207;-67
2023/06/22 10:39:19;;;;;;;1.23;1.17;;;;;;;29.44;53.08;95306.87;4362652;32;20200;-67
2023/06/22 10:41:46;;;;;;;7.67;3.47;;;;;;;29.58;52.29;95306.66;4323774;32;20298;-67
2023/06/22 10:44:13;;;;;;;2.40;2.10;;;;;;;29.65;52.24;95306.53;4350560;32;20240;-67
2023/06/22 10:46:41;;;;;;;2.03;1.93;;;;;;;29.73;51.98;95297.00;4334319;32;20200;-67
2023/06/22 10:49:08;;;;;;;1.27;1.17;;;;;;;29.69;51.70;95301.78;4350649;32;20461;-67
2023/06/22 10:51:36;;;;;;;3.60;2.23;;;;;;;29.69;51.37;95293.56;4364320;32;20208;-68
2023/06/22 10:54:04;;;;;;;2.03;1.93;;;;;;;29.72;51.49;95295.44;4363978;32;20205;-68
2023/06/22 10:56:30;;;;;;;2.17;2.07;;;;;;;29.88;50.27;95288.56;4362762;32;20196;-67
2023/06/22 10:58:56;;;;;;;1.57;1.47;;;;;;;29.95;49.97;95280.97;4377046;32;20271;-68
2023/06/22 11:01:23;;;;;;;1.87;1.70;;;;;;;29.98;50.19;95277.41;4341065;32;20204;-67
2023/06/22 11:03:49;;;;;;;5.73;1.57;;;;;;;30.10;50.31;95286.22;4380776;32;20280;-67
2023/06/22 11:06:17;;;;;;;2.23;2.13;;;;;;;30.23;50.41;95276.16;4346105;32;20279;-67
2023/06/22 11:08:45;;;;;;;3.77;2.30;;;;;;;30.22;50.42;95274.63;4367619;32;20192;-67
2023/06/22 11:11:17;;;;;;;1.40;1.30;;;;;;;30.19;50.85;95280.94;4326524;32;20244;-67
2023/06/22 11:13:46;;;;;;;3.27;2.97;;;;;;;30.22;49.91;95274.63;4338530;32;20189;-67
2023/06/22 11:16:12;;;;;;;2.53;1.40;;;;;;;30.19;49.80;95276.25;4357516;32;20215;-67
2023/06/22 11:18:39;;;;;;;1.53;1.43;;;;;;;30.14;49.96;95282.19;4373486;32;20189;-67
2023/06/22 11:21:06;;;;;;;1.07;1.07;;;;;;;30.20;50.25;95277.78;4355246;32;20193;-67
2023/06/22 11:23:32;;;;;;;1.40;1.33;;;;;;;30.10;50.60;95272.53;4351840;32;20189;-67
2023/06/22 11:25:58;;;;;;;1.10;1.10;;;;;;;30.22;49.27;95277.38;4381837;32;20180;-67
2023/06/22 11:28:24;;;;;;;2.97;2.33;;;;;;;30.25;49.05;95273.78;4383114;32;20199;-67
2023/06/22 11:30:49;;;;;;;1.30;1.30;;;;;;;30.29;49.30;95278.00;4359953;32;20190;-67
2023/06/22 11:33:15;;;;;;;1.33;1.33;;;;;;;30.36;49.24;95266.13;4361564;32;20226;-67
2023/06/22 11:35:42;;;;;;;1.97;1.87;;;;;;;30.47;49.15;95263.16;4321979;32;20290;-67
2023/06/22 11:38:08;;;;;;;2.60;2.40;;;;;;;30.47;49.54;95258.47;4354705;32;20251;-67
2023/06/22 11:40:35;;;;;;;2.50;2.30;;;;;;;30.52;49.56;95257.97;4351771;32;20185;-67
2023/06/22 11:43:03;;;;;;;1.50;1.47;;;;;;;30.64;49.00;95251.84;4351648;32;20232;-68
2023/06/22 11:45:31;;;;;;;1.43;1.30;;;;;;;30.52;49.58;95249.75;4373502;32;20251;-67